Harshaw, Arizona
Current Conditions -  °F | °C
As of 10:56 AM on Thursday 29 Jan 2015 (Local Time) from KALK Reporting Station
Overcast Overcast  
Wind Chill: 59°   Ceiling: 8000
Heat Index: 59°   Visibility: 10mi
Dew Point: 40°   Wind: 8mph
Humidity: 49%   Direction: 80°E
Pressure: 30.23"   Gusts: NA
Location:  31.4849°N, 110.609°W
Report Text: KALK 291756Z AUTO 08007KT 10SM BKN080 OVC100 15/04 A3023 RMK AO2 RAB01E33 SLP173 P0000 60000 T01500044 10150 20078 50008 TSNO
Loading
Personal Weather Stations






























Interactive Weather Map New forecast layout! Learn more

10-Day Weather Forecast

Advertisements
Track Severe Weather on mobile